Time;durP1;ratioP1;P1;durP2;ratioP2;P2;SDS_P1;SDS_P2;PMS_P1;PMS_P2;Temp;Humidity;BMP_temperature;BMP_pressure;BME280_temperature;BME280_humidity;BME280_pressure;Samples;Min_cycle;Max_cycle;Signal;HPM_P1;HPM_P2
2023/07/01 00:02:21;;;;;;;1.00;0.70;;;17.00;99.90;;;;;;5073614;28;20445;-84
2023/07/01 00:04:48;;;;;;;0.90;0.60;;;17.00;99.90;;;;;;5073318;28;20456;-84
2023/07/01 00:07:14;;;;;;;0.90;0.67;;;16.90;99.90;;;;;;5073583;28;20449;-84
2023/07/01 00:09:41;;;;;;;1.80;0.67;;;17.00;99.90;;;;;;5073181;28;20475;-84
2023/07/01 00:12:09;;;;;;;1.33;0.80;;;16.80;99.90;;;;;;5073391;28;20491;-84
2023/07/01 00:14:36;;;;;;;1.60;0.70;;;16.80;99.90;;;;;;5073522;28;20438;-84
2023/07/01 00:17:03;;;;;;;2.00;1.03;;;16.70;99.90;;;;;;5073490;28;20814;-84
2023/07/01 00:19:30;;;;;;;2.00;0.73;;;16.70;99.90;;;;;;5073376;28;20475;-84
2023/07/01 00:21:57;;;;;;;0.90;0.70;;;16.60;99.90;;;;;;5073400;28;20501;-84
2023/07/01 00:24:24;;;;;;;0.93;0.80;;;16.60;99.90;;;;;;5073181;28;20445;-84
2023/07/01 00:26:50;;;;;;;0.87;0.60;;;16.60;99.90;;;;;;5073050;28;20790;-84
2023/07/01 00:29:19;;;;;;;1.07;0.77;;;16.50;99.90;;;;;;5072795;28;20488;-84
2023/07/01 00:31:47;;;;;;;1.10;1.00;;;16.50;99.90;;;;;;5072915;28;21019;-84
2023/07/01 00:34:14;;;;;;;0.83;0.83;;;16.40;99.90;;;;;;5072979;28;20447;-84
2023/07/01 00:36:41;;;;;;;0.93;0.73;;;16.30;99.90;;;;;;5072942;28;20460;-84
2023/07/01 00:39:07;;;;;;;1.10;0.80;;;16.40;99.90;;;;;;5073158;28;20469;-84
2023/07/01 00:41:34;;;;;;;1.07;0.97;;;16.40;99.90;;;;;;5073280;28;20429;-84
2023/07/01 00:44:03;;;;;;;4.93;1.40;;;16.20;99.90;;;;;;5073165;28;20449;-84
2023/07/01 00:46:32;;;;;;;1.07;0.90;;;16.30;99.90;;;;;;5073128;28;20455;-84
2023/07/01 00:49:00;;;;;;;1.53;1.10;;;16.20;99.90;;;;;;5073093;28;20498;-84
2023/07/01 00:51:28;;;;;;;1.20;1.10;;;16.30;99.90;;;;;;5073068;28;20765;-84
2023/07/01 00:53:55;;;;;;;0.60;0.60;;;16.20;99.90;;;;;;5072812;28;20486;-84
2023/07/01 00:56:22;;;;;;;2.93;0.80;;;16.20;99.90;;;;;;5073037;28;20449;-85
2023/07/01 00:58:48;;;;;;;0.83;0.80;;;16.10;99.90;;;;;;5072951;28;20465;-85
2023/07/01 01:01:20;;;;;;;1.43;0.80;;;16.00;99.90;;;;;;5072660;28;20456;-84
2023/07/01 01:03:53;;;;;;;2.13;1.43;;;16.00;99.90;;;;;;5073866;28;20440;-85
2023/07/01 01:06:33;;;;;;;2.07;0.80;;;16.00;99.90;;;;;;5073009;28;20440;-85
2023/07/01 01:09:03;;;;;;;1.40;1.30;;;16.00;99.90;;;;;;5072878;28;20526;-85
2023/07/01 01:11:36;;;;;;;0.80;0.80;;;15.90;99.90;;;;;;5073287;28;20432;-85
2023/07/01 01:14:05;;;;;;;1.40;0.87;;;16.00;99.90;;;;;;5072568;28;20964;-85
2023/07/01 01:16:33;;;;;;;0.80;0.80;;;16.00;99.90;;;;;;5072912;28;20448;-85
2023/07/01 01:19:04;;;;;;;1.00;0.77;;;15.90;99.90;;;;;;5072797;28;20468;-84
2023/07/01 01:21:31;;;;;;;0.90;0.70;;;15.80;99.90;;;;;;5072817;28;20465;-84
2023/07/01 01:24:04;;;;;;;1.67;1.00;;;15.80;99.90;;;;;;5072809;28;20468;-84
2023/07/01 01:26:37;;;;;;;0.90;0.63;;;15.80;99.90;;;;;;5072542;28;20823;-85
2023/07/01 01:29:06;;;;;;;1.30;1.00;;;15.70;99.90;;;;;;5072263;28;21007;-85
2023/07/01 01:31:33;;;;;;;1.27;0.87;;;15.70;99.90;;;;;;5072780;28;20441;-84
2023/07/01 01:34:00;;;;;;;0.80;0.80;;;15.70;99.90;;;;;;5072422;28;20506;-84
2023/07/01 01:36:35;;;;;;;0.83;0.67;;;15.70;99.90;;;;;;5074954;28;20452;-85
2023/07/01 01:39:05;;;;;;;3.47;1.27;;;15.60;99.90;;;;;;5076293;28;20472;-85
2023/07/01 01:41:40;;;;;;;0.60;0.60;;;15.60;99.90;;;;;;5076180;28;20453;-85
2023/07/01 01:44:11;;;;;;;0.97;0.80;;;15.60;99.90;;;;;;5076484;28;20436;-84
2023/07/01 01:46:40;;;;;;;0.80;0.60;;;15.60;99.90;;;;;;5076169;28;20437;-84
2023/07/01 01:49:09;;;;;;;1.80;1.17;;;15.60;99.90;;;;;;5075992;28;20472;-84
2023/07/01 01:51:39;;;;;;;3.53;1.10;;;15.60;99.90;;;;;;5076286;28;20456;-85
2023/07/01 01:54:08;;;;;;;1.07;0.90;;;15.50;99.90;;;;;;5076259;28;20449;-85
2023/07/01 01:56:36;;;;;;;0.93;0.93;;;15.50;99.90;;;;;;5076069;28;20449;-84
2023/07/01 01:59:03;;;;;;;0.97;0.73;;;15.50;99.90;;;;;;5076136;28;20472;-85
2023/07/01 02:01:31;;;;;;;2.33;1.47;;;15.50;99.90;;;;;;5075868;28;20452;-85
2023/07/01 02:03:58;;;;;;;1.23;1.13;;;15.50;99.90;;;;;;5075863;28;20452;-85
2023/07/01 02:06:25;;;;;;;2.50;1.63;;;15.50;99.90;;;;;;5075792;28;20445;-85
2023/07/01 02:08:51;;;;;;;1.17;0.87;;;15.50;99.90;;;;;;5075427;28;20468;-84
2023/07/01 02:11:18;;;;;;;2.47;1.47;;;15.40;99.90;;;;;;5075728;28;20452;-84
2023/07/01 02:13:45;;;;;;;1.43;1.00;;;15.50;99.90;;;;;;5075766;28;20441;-84
2023/07/01 02:16:12;;;;;;;3.93;0.80;;;15.50;99.90;;;;;;5075645;28;20449;-85
2023/07/01 02:18:40;;;;;;;1.77;0.93;;;15.50;99.90;;;;;;5075181;28;21003;-84
2023/07/01 02:21:06;;;;;;;0.90;0.90;;;15.40;99.90;;;;;;5075206;28;20964;-85
2023/07/01 02:23:33;;;;;;;1.03;0.87;;;15.40;99.90;;;;;;5075433;28;20481;-85
2023/07/01 02:26:00;;;;;;;1.73;1.13;;;15.40;99.90;;;;;;5075154;28;20460;-85
2023/07/01 02:28:26;;;;;;;0.90;0.70;;;15.40;99.90;;;;;;5074845;28;20480;-84
2023/07/01 02:30:54;;;;;;;0.80;0.80;;;15.40;99.90;;;;;;5075376;28;20453;-85
2023/07/01 02:33:21;;;;;;;1.03;0.90;;;15.30;99.90;;;;;;5075261;28;20449;-85
2023/07/01 02:35:49;;;;;;;8.20;0.90;;;15.30;99.90;;;;;;5075401;28;20456;-84
2023/07/01 02:38:15;;;;;;;1.30;0.90;;;15.30;99.90;;;;;;5075148;28;20472;-85
2023/07/01 02:40:42;;;;;;;1.10;0.83;;;15.40;99.90;;;;;;5074850;28;20936;-84
2023/07/01 02:43:09;;;;;;;1.60;1.13;;;15.30;99.90;;;;;;5075013;28;20487;-85
2023/07/01 02:45:36;;;;;;;1.50;1.03;;;15.30;99.90;;;;;;5075044;28;20449;-85
2023/07/01 02:48:03;;;;;;;2.20;1.33;;;15.30;99.90;;;;;;5074908;28;20465;-85
2023/07/01 02:50:30;;;;;;;1.93;1.00;;;15.30;99.90;;;;;;5074955;28;20453;-85
2023/07/01 02:52:58;;;;;;;2.60;1.00;;;15.30;99.90;;;;;;5075149;28;20445;-84
2023/07/01 02:55:29;;;;;;;1.07;0.90;;;15.30;99.90;;;;;;5074557;28;20452;-85
2023/07/01 02:57:56;;;;;;;1.03;0.70;;;15.20;99.90;;;;;;5074464;28;21033;-85
2023/07/01 03:00:23;;;;;;;1.87;1.00;;;15.20;99.90;;;;;;5074795;28;20478;-84
2023/07/01 03:02:50;;;;;;;1.40;1.30;;;15.20;99.90;;;;;;5074915;28;20496;-85
2023/07/01 03:05:19;;;;;;;1.60;0.70;;;15.10;99.90;;;;;;5074653;28;20476;-84
2023/07/01 03:07:45;;;;;;;1.20;0.90;;;15.10;99.90;;;;;;5074457;28;20457;-84
2023/07/01 03:10:14;;;;;;;1.20;1.10;;;15.10;99.90;;;;;;5075085;28;20794;-85
2023/07/01 03:12:41;;;;;;;2.20;1.20;;;15.00;99.90;;;;;;5074504;28;20436;-85
2023/07/01 03:15:09;;;;;;;1.87;1.40;;;15.00;99.90;;;;;;5074181;28;20433;-84
2023/07/01 03:17:36;;;;;;;2.50;1.40;;;15.00;99.90;;;;;;5074318;28;20441;-84
2023/07/01 03:20:05;;;;;;;1.43;0.80;;;15.00;99.90;;;;;;5074078;28;20974;-84
2023/07/01 03:22:32;;;;;;;0.83;0.83;;;15.00;99.90;;;;;;5073963;28;20476;-84
2023/07/01 03:24:59;;;;;;;2.53;1.10;;;14.90;99.90;;;;;;5074280;28;20453;-84
2023/07/01 03:27:27;;;;;;;1.87;0.87;;;14.80;99.90;;;;;;5074002;28;20802;-84
2023/07/01 03:29:54;;;;;;;2.50;1.23;;;14.80;99.90;;;;;;5074160;28;20468;-84
2023/07/01 03:32:21;;;;;;;0.97;0.73;;;14.90;99.90;;;;;;5073772;28;20452;-84
2023/07/01 03:34:48;;;;;;;1.80;1.00;;;14.90;99.90;;;;;;5074077;28;20452;-84
2023/07/01 03:37:15;;;;;;;1.10;1.00;;;14.80;99.90;;;;;;5073826;28;20433;-84
2023/07/01 03:39:41;;;;;;;1.90;1.23;;;14.80;99.90;;;;;;5073916;28;20473;-84
2023/07/01 03:42:08;;;;;;;2.00;1.10;;;14.80;99.90;;;;;;5073874;28;20459;-84
2023/07/01 03:44:36;;;;;;;1.23;1.00;;;14.90;99.90;;;;;;5073971;28;20448;-85
2023/07/01 03:47:03;;;;;;;2.80;1.70;;;15.00;99.90;;;;;;5073544;28;20805;-84
2023/07/01 03:49:30;;;;;;;1.47;1.30;;;15.00;99.90;;;;;;5073763;28;20469;-84
2023/07/01 03:51:57;;;;;;;1.13;1.00;;;15.00;99.90;;;;;;5073985;28;20456;-85
2023/07/01 03:54:23;;;;;;;1.20;1.10;;;14.90;99.90;;;;;;5074025;28;20452;-84
2023/07/01 03:56:50;;;;;;;1.77;1.23;;;14.90;99.90;;;;;;5073722;28;20453;-84
2023/07/01 03:59:17;;;;;;;1.27;1.17;;;15.00;99.90;;;;;;5073213;28;20469;-84
2023/07/01 04:01:45;;;;;;;2.47;1.23;;;15.00;99.90;;;;;;5073672;28;20566;-84
2023/07/01 04:04:12;;;;;;;2.07;1.13;;;15.10;99.90;;;;;;5073550;28;20487;-84
2023/07/01 04:06:39;;;;;;;3.33;1.33;;;15.10;99.90;;;;;;5073576;28;20451;-84
2023/07/01 04:09:12;;;;;;;1.50;1.03;;;15.20;99.90;;;;;;5073142;28;20980;-84
2023/07/01 04:11:39;;;;;;;2.00;1.43;;;15.30;99.90;;;;;;5073556;28;20452;-84
2023/07/01 04:14:05;;;;;;;1.27;0.70;;;15.30;99.90;;;;;;5073496;28;20474;-84
2023/07/01 04:16:32;;;;;;;1.20;0.97;;;15.30;99.90;;;;;;5073155;28;20440;-84
2023/07/01 04:19:00;;;;;;;1.50;1.33;;;15.30;99.90;;;;;;5073342;28;20522;-84
2023/07/01 04:21:27;;;;;;;1.13;0.90;;;15.30;99.90;;;;;;5073425;28;20452;-84
2023/07/01 04:23:54;;;;;;;2.50;1.20;;;15.30;99.90;;;;;;5073260;28;20484;-84
2023/07/01 04:26:21;;;;;;;1.27;0.93;;;15.30;99.90;;;;;;5073026;28;20539;-84
2023/07/01 04:28:48;;;;;;;1.43;1.33;;;15.30;99.90;;;;;;5072937;28;20488;-84
2023/07/01 04:31:14;;;;;;;3.63;1.10;;;15.30;99.90;;;;;;5073278;28;20456;-84
2023/07/01 04:33:41;;;;;;;1.67;1.00;;;15.30;99.90;;;;;;5072952;28;20448;-84
2023/07/01 04:36:09;;;;;;;2.80;1.20;;;15.40;99.90;;;;;;5073216;28;20453;-84
2023/07/01 04:38:36;;;;;;;1.20;1.20;;;15.40;99.90;;;;;;5073185;28;20479;-84
2023/07/01 04:41:03;;;;;;;1.33;0.90;;;15.50;99.90;;;;;;5073203;28;20449;-84
2023/07/01 04:43:30;;;;;;;0.80;0.77;;;15.50;99.90;;;;;;5073116;28;20487;-84
2023/07/01 04:45:57;;;;;;;2.73;1.00;;;15.60;99.90;;;;;;5072896;28;20952;-84
2023/07/01 04:48:23;;;;;;;1.13;1.03;;;15.70;99.90;;;;;;5073099;28;20469;-84
2023/07/01 04:50:50;;;;;;;1.63;1.10;;;15.70;99.90;;;;;;5073137;28;20444;-84
2023/07/01 04:53:18;;;;;;;2.80;0.90;;;15.80;99.90;;;;;;5073090;28;20453;-84
2023/07/01 04:55:45;;;;;;;2.23;1.73;;;15.90;99.90;;;;;;5073088;28;20448;-84
2023/07/01 04:58:12;;;;;;;1.03;0.93;;;15.80;99.90;;;;;;5073004;28;20473;-84
2023/07/01 05:00:39;;;;;;;2.00;1.40;;;15.90;99.90;;;;;;5073049;28;20452;-85
2023/07/01 05:03:05;;;;;;;1.20;1.00;;;15.90;99.90;;;;;;5072882;28;20477;-84
2023/07/01 05:05:32;;;;;;;4.53;0.97;;;15.80;99.90;;;;;;5072896;28;20451;-84
2023/07/01 05:07:59;;;;;;;2.10;1.20;;;15.80;99.90;;;;;;5072928;28;20476;-84
2023/07/01 05:10:27;;;;;;;1.10;1.10;;;15.90;99.90;;;;;;5073690;28;20445;-84
2023/07/01 05:12:54;;;;;;;1.40;1.03;;;15.90;99.90;;;;;;5076514;28;20935;-84
2023/07/01 05:15:20;;;;;;;1.70;1.27;;;16.00;99.90;;;;;;5076951;28;20849;-85
2023/07/01 05:17:47;;;;;;;3.60;1.10;;;16.00;99.90;;;;;;5076650;28;20445;-84
2023/07/01 05:20:14;;;;;;;1.87;1.13;;;16.10;99.90;;;;;;5076676;28;20453;-83
2023/07/01 05:22:41;;;;;;;1.23;1.13;;;16.10;99.90;;;;;;5076232;28;20801;-84
2023/07/01 05:25:08;;;;;;;2.60;1.80;;;16.20;99.90;;;;;;5076525;28;20451;-84
2023/07/01 05:27:36;;;;;;;1.10;0.97;;;16.30;99.90;;;;;;5076298;28;20460;-84
2023/07/01 05:30:04;;;;;;;1.37;0.83;;;16.30;99.90;;;;;;5076529;28;20433;-84
2023/07/01 05:32:30;;;;;;;1.40;0.90;;;16.40;99.90;;;;;;5076417;28;20457;-84
2023/07/01 05:34:57;;;;;;;1.37;1.10;;;16.50;99.90;;;;;;5076089;28;20449;-84
2023/07/01 05:37:24;;;;;;;3.47;1.43;;;16.60;99.90;;;;;;5076371;28;20452;-84
2023/07/01 05:39:50;;;;;;;1.53;1.20;;;16.60;99.90;;;;;;5076262;28;20460;-84
2023/07/01 05:42:17;;;;;;;2.60;1.73;;;16.80;99.90;;;;;;5075936;28;20937;-84
2023/07/01 05:44:45;;;;;;;1.10;1.00;;;16.90;99.90;;;;;;5076142;28;20487;-84
2023/07/01 05:47:12;;;;;;;3.70;1.00;;;16.90;99.90;;;;;;5076144;28;20445;-84
2023/07/01 05:49:39;;;;;;;1.60;1.07;;;17.00;99.90;;;;;;5076090;28;20469;-84
2023/07/01 05:52:06;;;;;;;3.87;1.23;;;17.10;99.90;;;;;;5076069;28;20812;-84
2023/07/01 05:54:32;;;;;;;1.47;1.13;;;17.20;99.90;;;;;;5076054;28;20445;-85
2023/07/01 05:56:59;;;;;;;2.70;1.53;;;17.20;99.90;;;;;;5075963;28;20456;-83
2023/07/01 05:59:26;;;;;;;0.90;0.90;;;17.30;99.90;;;;;;5075837;28;20461;-84
2023/07/01 06:01:54;;;;;;;1.43;1.20;;;17.40;99.90;;;;;;5075849;28;20445;-84
2023/07/01 06:04:21;;;;;;;2.13;1.33;;;17.60;99.90;;;;;;5075538;28;20477;-84
2023/07/01 06:06:47;;;;;;;2.20;1.60;;;17.80;99.90;;;;;;5075812;28;20449;-84
2023/07/01 06:09:16;;;;;;;1.73;1.07;;;17.90;99.90;;;;;;5075796;28;20473;-84
2023/07/01 06:11:43;;;;;;;3.07;1.13;;;18.00;99.90;;;;;;5075696;28;20456;-84
2023/07/01 06:14:09;;;;;;;6.93;1.47;;;18.10;99.90;;;;;;5075938;28;20440;-85
2023/07/01 06:16:37;;;;;;;1.73;1.07;;;18.20;99.90;;;;;;5075307;28;20925;-84
2023/07/01 06:19:05;;;;;;;1.37;1.17;;;18.30;99.90;;;;;;5075289;28;21007;-84
2023/07/01 06:21:32;;;;;;;3.00;1.00;;;18.40;99.90;;;;;;5075863;28;20453;-84
2023/07/01 06:23:59;;;;;;;1.53;1.00;;;18.60;99.90;;;;;;5075451;28;20477;-84
2023/07/01 06:26:25;;;;;;;11.70;1.20;;;18.80;99.90;;;;;;5075726;28;20449;-85
2023/07/01 06:28:52;;;;;;;1.47;1.37;;;18.70;99.90;;;;;;5075074;28;20484;-85
2023/07/01 06:31:19;;;;;;;0.90;0.80;;;19.00;99.90;;;;;;5075017;28;20454;-84
2023/07/01 06:33:46;;;;;;;0.93;0.90;;;19.20;99.90;;;;;;5075020;28;20445;-84
2023/07/01 06:36:15;;;;;;;1.27;1.17;;;19.40;99.90;;;;;;5074958;28;20940;-84
2023/07/01 06:38:41;;;;;;;1.73;1.23;;;19.70;99.90;;;;;;5075179;28;20503;-85
2023/07/01 06:41:08;;;;;;;1.63;1.30;;;19.80;99.90;;;;;;5074943;28;20439;-85
2023/07/01 06:43:38;;;;;;;0.83;0.83;;;20.10;99.90;;;;;;5075032;28;20488;-85
2023/07/01 06:46:06;;;;;;;2.40;0.83;;;20.30;99.90;;;;;;5074890;28;20474;-85
2023/07/01 06:48:32;;;;;;;8.73;1.37;;;20.50;99.90;;;;;;5075056;28;20468;-86
2023/07/01 06:50:59;;;;;;;1.07;1.00;;;20.70;99.90;;;;;;5075070;28;20440;-85
2023/07/01 06:53:27;;;;;;;1.03;0.97;;;20.70;99.90;;;;;;5074681;28;20963;-86
2023/07/01 06:55:54;;;;;;;1.10;1.00;;;20.90;99.90;;;;;;5074889;28;20448;-85
2023/07/01 06:58:21;;;;;;;1.10;1.00;;;21.00;99.90;;;;;;5074890;28;20472;-86
2023/07/01 07:00:48;;;;;;;1.30;0.80;;;21.20;99.90;;;;;;5074856;28;20456;-86
2023/07/01 07:03:14;;;;;;;0.90;0.90;;;21.20;99.90;;;;;;5075431;28;20444;-86
2023/07/01 07:05:41;;;;;;;1.60;1.00;;;21.20;99.90;;;;;;5075226;28;20475;-85
2023/07/01 07:08:08;;;;;;;1.10;1.00;;;21.30;99.90;;;;;;5074533;28;20464;-85
2023/07/01 07:10:36;;;;;;;1.53;1.30;;;21.30;99.90;;;;;;5075004;28;20451;-86
2023/07/01 07:13:03;;;;;;;0.80;0.80;;;21.30;99.90;;;;;;5075777;28;20872;-86
2023/07/01 07:15:30;;;;;;;1.80;1.27;;;21.40;99.90;;;;;;5075951;28;20482;-86
2023/07/01 07:17:57;;;;;;;1.20;1.10;;;21.40;99.90;;;;;;5075361;28;20462;-86
2023/07/01 07:20:24;;;;;;;1.30;1.20;;;21.30;99.90;;;;;;5074791;28;20433;-86
2023/07/01 07:22:50;;;;;;;1.47;0.77;;;21.20;99.90;;;;;;5074683;28;20444;-85
2023/07/01 07:25:17;;;;;;;0.90;0.80;;;21.20;99.90;;;;;;5074703;28;21015;-86
2023/07/01 07:27:46;;;;;;;2.40;1.10;;;21.50;99.90;;;;;;5074326;28;20495;-86
2023/07/01 07:30:14;;;;;;;1.13;0.97;;;21.70;99.90;;;;;;5074727;28;20425;-86
2023/07/01 07:32:41;;;;;;;1.57;0.80;;;21.80;99.90;;;;;;5074681;28;20449;-88
2023/07/01 07:35:08;;;;;;;1.00;0.90;;;22.10;99.90;;;;;;5074340;28;20432;-88
2023/07/01 07:37:36;;;;;;;1.20;0.90;;;22.10;99.90;;;;;;5074402;28;20452;-89
2023/07/01 07:40:05;;;;;;;2.50;0.80;;;22.40;99.90;;;;;;5074154;28;20904;-86
2023/07/01 07:42:32;;;;;;;1.47;0.90;;;22.40;99.90;;;;;;5074428;28;20502;-86
2023/07/01 07:45:00;;;;;;;1.10;1.00;;;22.40;99.90;;;;;;5074114;28;20228;-87
2023/07/01 07:47:27;;;;;;;1.77;1.10;;;22.30;99.90;;;;;;5074062;28;20451;-86
2023/07/01 07:49:54;;;;;;;0.87;0.80;;;22.30;99.90;;;;;;5074213;28;21044;-87
2023/07/01 07:52:20;;;;;;;1.07;0.90;;;22.30;99.90;;;;;;5074355;28;20455;-86
2023/07/01 07:54:48;;;;;;;1.60;1.20;;;22.20;99.90;;;;;;5074033;28;20198;-86
2023/07/01 07:57:14;;;;;;;1.10;1.00;;;22.40;99.90;;;;;;5073740;28;20936;-86
2023/07/01 07:59:42;;;;;;;1.83;0.90;;;22.60;99.90;;;;;;5080024;28;20317;-86
2023/07/01 08:02:10;;;;;;;0.80;0.80;;;22.50;99.90;;;;;;5073961;28;20202;-86
2023/07/01 08:04:37;;;;;;;3.53;1.33;;;22.50;99.90;;;;;;5073359;28;20213;-86
2023/07/01 08:07:04;;;;;;;1.03;1.00;;;22.60;99.90;;;;;;5073636;28;20202;-86
2023/07/01 08:09:31;;;;;;;2.20;0.97;;;22.70;99.90;;;;;;5073584;28;20607;-86
2023/07/01 08:11:58;;;;;;;1.10;1.00;;;22.80;99.90;;;;;;5073643;28;20232;-86
2023/07/01 08:14:25;;;;;;;0.90;0.90;;;22.90;99.90;;;;;;5073541;28;20206;-87
2023/07/01 08:16:53;;;;;;;1.23;1.00;;;23.20;99.90;;;;;;5073577;28;20367;-88
2023/07/01 08:19:22;;;;;;;0.80;0.80;;;23.50;99.90;;;;;;5073536;28;20229;-87
2023/07/01 08:21:49;;;;;;;1.85;1.10;;;23.50;99.90;;;;;;5073513;28;20700;-86
2023/07/01 08:24:16;;;;;;;2.20;0.95;;;23.80;99.90;;;;;;5073481;28;20225;-86
2023/07/01 08:26:43;;;;;;;0.88;0.80;;;24.30;99.90;;;;;;5073365;28;20691;-86
2023/07/01 08:29:11;;;;;;;0.65;0.65;;;24.40;99.90;;;;;;5073097;28;20234;-86
2023/07/01 08:31:39;;;;;;;0.82;0.82;;;25.10;99.90;;;;;;5073542;28;20209;-86
2023/07/01 08:34:06;;;;;;;0.80;0.80;;;25.40;99.90;;;;;;5073163;28;20205;-86
2023/07/01 08:36:34;;;;;;;1.50;1.08;;;25.80;99.90;;;;;;5074211;28;20209;-87
2023/07/01 08:39:01;;;;;;;0.95;0.88;;;25.70;99.90;;;;;;5073430;28;20229;-87
2023/07/01 08:41:31;;;;;;;0.82;0.82;;;25.50;99.90;;;;;;5073512;28;20295;-86
2023/07/01 08:43:59;;;;;;;0.93;0.93;;;25.40;99.90;;;;;;5075108;28;20224;-88
2023/07/01 08:46:26;;;;;;;0.85;0.85;;;25.60;99.90;;;;;;5077169;28;20549;-87
2023/07/01 08:48:56;;;;;;;0.60;0.60;;;25.20;99.10;;;;;;5077101;28;20729;-87
2023/07/01 08:51:26;;;;;;;0.75;0.75;;;25.10;99.80;;;;;;5077577;28;20271;-88
2023/07/01 08:53:55;;;;;;;6.18;1.30;;;24.60;98.80;;;;;;5077462;28;20186;-86
2023/07/01 08:56:22;;;;;;;1.48;0.80;;;24.30;98.50;;;;;;5077340;28;20230;-87
2023/07/01 08:58:50;;;;;;;0.60;0.60;;;24.30;99.40;;;;;;5077134;28;20228;-85
2023/07/01 09:01:18;;;;;;;1.73;0.60;;;24.20;98.90;;;;;;5077210;28;20202;-85
2023/07/01 09:03:47;;;;;;;0.93;0.80;;;24.30;99.90;;;;;;5076691;28;20197;-86
2023/07/01 09:06:14;;;;;;;0.75;0.75;;;24.30;98.80;;;;;;5076773;28;20642;-86
2023/07/01 09:08:41;;;;;;;0.60;0.60;;;24.10;98.90;;;;;;5076945;28;20586;-86
2023/07/01 09:11:14;;;;;;;0.77;0.70;;;24.00;99.90;;;;;;5076963;28;20205;-86
2023/07/01 09:13:40;;;;;;;0.63;0.63;;;24.10;99.10;;;;;;5077049;28;20187;-85
2023/07/01 09:16:07;;;;;;;0.82;0.70;;;24.10;97.90;;;;;;5076945;28;20204;-85
2023/07/01 09:18:34;;;;;;;1.85;1.15;;;24.10;97.40;;;;;;5076726;28;20229;-86
2023/07/01 09:21:02;;;;;;;0.80;0.80;;;24.10;97.50;;;;;;5076702;28;20206;-86
2023/07/01 09:23:30;;;;;;;0.60;0.60;;;23.90;97.00;;;;;;5076850;28;20214;-85
2023/07/01 09:26:14;;;;;;;1.02;0.93;;;24.00;98.30;;;;;;5076557;28;20221;-85
2023/07/01 09:28:42;;;;;;;0.60;0.60;;;24.10;95.10;;;;;;5076182;28;20240;-86
2023/07/01 09:31:10;;;;;;;0.70;0.70;;;24.20;95.70;;;;;;5076155;28;20202;-86
2023/07/01 09:33:38;;;;;;;0.70;0.70;;;24.20;95.80;;;;;;5076293;28;20567;-86
2023/07/01 09:36:07;;;;;;;1.58;0.80;;;24.40;96.30;;;;;;5076457;28;20200;-86
2023/07/01 09:38:35;;;;;;;0.70;0.70;;;24.30;94.40;;;;;;5076355;28;20705;-86
2023/07/01 09:41:15;;;;;;;0.52;0.52;;;24.30;94.50;;;;;;5076454;28;20202;-86
2023/07/01 09:43:42;;;;;;;0.70;0.60;;;24.20;94.00;;;;;;5076640;28;20209;-87
2023/07/01 09:46:09;;;;;;;1.20;0.70;;;24.20;94.90;;;;;;5076288;28;20222;-85
2023/07/01 09:48:36;;;;;;;1.17;0.70;;;24.10;94.10;;;;;;5076172;28;20222;-85
2023/07/01 09:51:04;;;;;;;1.98;0.60;;;24.10;94.50;;;;;;5076244;28;20570;-86
2023/07/01 09:53:33;;;;;;;0.95;0.70;;;24.20;94.60;;;;;;5075971;28;20206;-85
2023/07/01 09:56:02;;;;;;;0.65;0.60;;;24.20;93.70;;;;;;5075370;28;20202;-85
2023/07/01 09:58:31;;;;;;;0.93;0.80;;;24.20;93.70;;;;;;5076191;28;20222;-86
2023/07/01 10:00:58;;;;;;;0.90;0.70;;;24.20;95.00;;;;;;5075543;28;20202;-86
2023/07/01 10:03:26;;;;;;;1.05;0.95;;;24.10;94.30;;;;;;5075947;28;20213;-86
2023/07/01 10:05:54;;;;;;;0.70;0.63;;;24.00;93.50;;;;;;5076062;28;20263;-86
2023/07/01 10:08:21;;;;;;;0.55;0.55;;;23.90;93.60;;;;;;5075570;28;20709;-86
2023/07/01 10:10:59;;;;;;;0.60;0.60;;;23.70;94.20;;;;;;5076616;28;20209;-86
2023/07/01 10:13:27;;;;;;;1.13;0.60;;;23.50;93.50;;;;;;5076093;28;20189;-86
2023/07/01 10:15:56;;;;;;;0.60;0.60;;;23.50;93.40;;;;;;5076592;28;20198;-85
2023/07/01 10:18:24;;;;;;;1.40;0.70;;;23.50;92.40;;;;;;5075661;28;20229;-85
2023/07/01 10:20:51;;;;;;;1.33;0.70;;;23.60;94.30;;;;;;5075631;28;20202;-85
2023/07/01 10:23:19;;;;;;;0.93;0.88;;;23.70;93.50;;;;;;5075430;28;20201;-85
2023/07/01 10:25:45;;;;;;;0.50;0.50;;;23.80;93.40;;;;;;5075337;28;20229;-85
2023/07/01 10:28:13;;;;;;;0.68;0.68;;;23.70;92.30;;;;;;5075071;28;20238;-84
2023/07/01 10:31:15;;;;;;;0.60;0.60;;;23.70;93.70;;;;;;5075522;28;20197;-86
2023/07/01 10:33:54;;;;;;;2.60;1.17;;;23.70;92.60;;;;;;5075432;28;20197;-86
2023/07/01 10:36:21;;;;;;;0.70;0.70;;;23.60;90.90;;;;;;5075431;28;20190;-87
2023/07/01 10:38:48;;;;;;;3.57;0.93;;;23.60;91.30;;;;;;5075021;28;20709;-86
2023/07/01 10:41:15;;;;;;;0.70;0.70;;;23.60;92.00;;;;;;5075782;28;20217;-86
2023/07/01 10:43:42;;;;;;;0.98;0.98;;;23.80;92.60;;;;;;5075165;28;20775;-86
2023/07/01 10:46:22;;;;;;;0.87;0.80;;;24.00;91.80;;;;;;5075157;28;20222;-85
2023/07/01 10:49:07;;;;;;;1.45;0.90;;;24.20;91.40;;;;;;5075157;28;20245;-87
2023/07/01 10:52:06;;;;;;;2.08;1.27;;;24.40;90.60;;;;;;5074886;28;20197;-88
2023/07/01 10:54:38;;;;;;;3.13;1.10;;;24.40;89.80;;;;;;5075210;28;20527;-85
2023/07/01 10:57:14;;;;;;;1.60;0.95;;;24.30;91.10;;;;;;5075089;28;20218;-86
2023/07/01 10:59:41;;;;;;;0.63;0.60;;;24.30;91.20;;;;;;5075340;28;20582;-86
2023/07/01 11:02:09;;;;;;;1.70;1.20;;;24.40;92.00;;;;;;5074553;28;20677;-85
2023/07/01 11:05:04;;;;;;;1.30;0.70;;;24.50;90.70;;;;;;5074405;28;20593;-85
2023/07/01 11:07:33;;;;;;;1.52;0.77;;;24.70;91.30;;;;;;5074343;28;20202;-86
2023/07/01 11:09:59;;;;;;;1.00;0.80;;;24.90;89.80;;;;;;5074085;28;20214;-87
2023/07/01 11:12:27;;;;;;;1.33;1.00;;;25.20;90.60;;;;;;5074771;28;20213;-86
2023/07/01 11:14:55;;;;;;;2.15;0.73;;;25.20;86.20;;;;;;5074718;28;20205;-89
2023/07/01 11:17:23;;;;;;;2.67;1.00;;;25.00;86.20;;;;;;5074574;28;20235;-85
2023/07/01 11:19:54;;;;;;;1.25;0.80;;;25.00;88.30;;;;;;5074019;28;20735;-85
2023/07/01 11:22:21;;;;;;;0.82;0.80;;;25.10;91.10;;;;;;5074332;28;20190;-85
2023/07/01 11:24:50;;;;;;;0.60;0.60;;;25.30;90.50;;;;;;5074242;28;20225;-85
2023/07/01 11:27:17;;;;;;;3.20;0.90;;;25.20;90.70;;;;;;5073886;28;20213;-85
2023/07/01 11:29:47;;;;;;;1.50;0.88;;;25.10;90.80;;;;;;5073718;28;20268;-85
2023/07/01 11:32:14;;;;;;;0.68;0.68;;;25.10;91.20;;;;;;5074170;28;20202;-85
2023/07/01 11:34:42;;;;;;;0.98;0.80;;;25.00;90.70;;;;;;5074143;28;20210;-85
2023/07/01 11:37:09;;;;;;;2.17;1.17;;;24.90;90.10;;;;;;5074044;28;20209;-85
2023/07/01 11:39:44;;;;;;;1.17;0.70;;;24.70;90.70;;;;;;5074114;28;20228;-85
2023/07/01 11:42:12;;;;;;;1.55;1.15;;;24.50;91.30;;;;;;5074088;28;20213;-85
2023/07/01 11:44:39;;;;;;;1.17;0.80;;;24.30;92.50;;;;;;5073637;28;20299;-85
2023/07/01 11:47:11;;;;;;;1.00;0.90;;;24.40;92.00;;;;;;5073927;28;20201;-85
2023/07/01 11:49:38;;;;;;;4.45;1.40;;;24.30;92.10;;;;;;5073888;28;20275;-85
2023/07/01 11:52:06;;;;;;;1.25;1.00;;;24.10;91.80;;;;;;5073885;28;20202;-84
2023/07/01 11:54:45;;;;;;;0.88;0.70;;;24.00;93.20;;;;;;5073823;28;20198;-85
2023/07/01 11:57:14;;;;;;;1.10;0.88;;;23.80;93.10;;;;;;5073711;28;20213;-84
2023/07/01 11:59:42;;;;;;;1.73;1.00;;;23.60;93.60;;;;;;5073989;28;20222;-84
2023/07/01 12:02:09;;;;;;;0.70;0.70;;;23.50;93.70;;;;;;5073798;28;20209;-84
2023/07/01 12:04:36;;;;;;;1.70;0.60;;;23.30;93.00;;;;;;5073706;28;20183;-84
2023/07/01 12:07:08;;;;;;;2.13;0.90;;;23.20;93.20;;;;;;5073721;28;20201;-86
2023/07/01 12:09:35;;;;;;;0.70;0.70;;;23.10;93.90;;;;;;5073424;28;20588;-84
2023/07/01 12:12:02;;;;;;;0.70;0.70;;;22.80;94.10;;;;;;5073343;28;20296;-84
2023/07/01 12:14:30;;;;;;;1.07;0.70;;;22.80;94.60;;;;;;5073563;28;20202;-84
2023/07/01 12:16:57;;;;;;;0.70;0.57;;;22.70;95.10;;;;;;5073525;28;20440;-85
2023/07/01 12:19:25;;;;;;;0.60;0.60;;;22.70;94.80;;;;;;5074964;28;20464;-84
2023/07/01 12:21:54;;;;;;;1.00;0.50;;;22.60;95.10;;;;;;5073574;28;20433;-85
2023/07/01 12:24:22;;;;;;;0.70;0.50;;;22.60;95.40;;;;;;5073756;28;20315;-85
2023/07/01 12:26:50;;;;;;;1.77;0.70;;;22.70;96.20;;;;;;5073091;28;20479;-85
2023/07/01 12:29:17;;;;;;;0.70;0.70;;;22.80;96.10;;;;;;5073163;28;20492;-84
2023/07/01 12:31:46;;;;;;;0.83;0.80;;;22.90;96.90;;;;;;5073356;28;20531;-85
2023/07/01 12:34:13;;;;;;;0.80;0.67;;;23.00;95.70;;;;;;5073204;28;20229;-85
2023/07/01 12:36:42;;;;;;;0.50;0.50;;;22.90;95.60;;;;;;5073311;28;20440;-84
2023/07/01 12:39:09;;;;;;;0.57;0.50;;;23.00;94.90;;;;;;5073354;28;20225;-84
2023/07/01 12:41:37;;;;;;;0.70;0.70;;;22.80;94.50;;;;;;5073107;28;20576;-84
2023/07/01 12:44:04;;;;;;;0.80;0.77;;;22.70;95.30;;;;;;5073286;28;20471;-84
2023/07/01 12:46:31;;;;;;;2.03;0.60;;;22.80;97.20;;;;;;5073207;28;20654;-84
2023/07/01 12:49:00;;;;;;;3.53;0.70;;;22.80;97.40;;;;;;5073227;28;20472;-85
2023/07/01 12:51:27;;;;;;;0.70;0.60;;;22.80;98.50;;;;;;5073229;28;20260;-85
2023/07/01 12:53:55;;;;;;;0.50;0.50;;;22.80;98.70;;;;;;5073185;28;20198;-85